CheckWX is a tool to help pilots better visualize weather data.  It is not intended as a substitute for an official pre-flight weather briefing.

15:06:29 UTC

KCXO METAR
Conroe-North Houston Regional Airport
Houston, Texas, USA
Current

13 mins ago

KCXO 231453Z 15020G27KT 10SM SCT026 BKN035 31/23 A3002 RMK AO2 PK WND 16027/1452 SLP160 T03060228 51010
Observed
May-23 @ 14:53 UTC
Wind
  • 150° at 20 KTS
  • Gusting to 27 KTS
Visibility
10 SM
Flight Rules
VFR
Cloud Levels
  • Scattered at 2,600' AGL
  • Broken at 3,500' AGL
Temperature
31°C / 88°F
Dewpoint
23°C / 73°F
Heat Index
36°C / 96°F
Humidity
62%
Altimeter
30.02" Hg
Pressure
1016.62 hPa
Previous

1 hour ago

KCXO 231353Z 16012KT 10SM BKN024 OVC030 28/23 A3001 RMK AO2 SLP157 T02780228
Observed
May-23 @ 13:53 UTC
Wind
  • 160° at 12 KTS
Visibility
10 SM
Flight Rules
MVFR
Cloud Levels
  • Broken at 2,400' AGL
  • Overcast at 3,000' AGL
Temperature
28°C / 82°F
Dewpoint
23°C / 73°F
Heat Index
31°C / 87°F
Humidity
74%
Altimeter
30.01" Hg
Pressure
1016.22 hPa
Previous

2 hours ago

KCXO 231253Z 16009KT 10SM OVC024 26/23 A3000 RMK AO2 SLP154 T02610228
Observed
May-23 @ 12:53 UTC
Wind
  • 160° at 9 KTS
Visibility
10 SM
Flight Rules
MVFR
Cloud Levels
  • Overcast at 2,400' AGL
Temperature
26°C / 79°F
Dewpoint
23°C / 73°F
Humidity
84%
Altimeter
30" Hg
Pressure
1015.92 hPa